Time;durP1;ratioP1;P1;durP2;ratioP2;P2;SDS_P1;SDS_P2;PMS_P1;PMS_P2;Temp;Humidity;BMP_temperature;BMP_pressure;BME280_temperature;BME280_humidity;BME280_pressure;Samples;Min_cycle;Max_cycle;Signal;HPM_P1;HPM_P2
2022/09/06 00:00:37;;;;;;;2.10;1.10;;;23.00;53.00;;;;;;2405547;53;20938;-69
2022/09/06 00:03:03;;;;;;;2.80;1.25;;;23.00;53.00;;;;;;2347909;53;21853;-69
2022/09/06 00:05:30;;;;;;;4.22;1.12;;;23.00;53.00;;;;;;2371199;53;20975;-69
2022/09/06 00:08:00;;;;;;;2.50;1.20;;;22.90;53.00;;;;;;2370493;53;21006;-73
2022/09/06 00:10:27;;;;;;;2.87;1.27;;;22.90;53.10;;;;;;2368051;53;21977;-69
2022/09/06 00:12:59;;;;;;;2.55;1.40;;;22.90;53.20;;;;;;2370807;53;21010;-71
2022/09/06 00:15:26;;;;;;;2.90;1.37;;;22.80;53.30;;;;;;2371286;53;20918;-69
2022/09/06 00:17:53;;;;;;;2.30;1.25;;;22.80;53.20;;;;;;2359007;53;20907;-73
2022/09/06 00:20:19;;;;;;;2.62;1.27;;;22.80;53.30;;;;;;2362312;53;20939;-69
2022/09/06 00:22:45;;;;;;;3.17;1.60;;;22.80;53.40;;;;;;2622333;52;21017;-69
2022/09/06 00:25:12;;;;;;;2.70;1.27;;;22.80;53.60;;;;;;2370927;53;20990;-67
2022/09/06 00:27:38;;;;;;;2.72;1.35;;;22.70;53.60;;;;;;2362922;53;21038;-69
2022/09/06 00:30:06;;;;;;;3.20;1.60;;;22.70;53.80;;;;;;2360755;53;21917;-69
2022/09/06 00:32:35;;;;;;;3.42;1.50;;;22.70;53.90;;;;;;2346548;53;21035;-72
2022/09/06 00:35:01;;;;;;;2.85;1.52;;;22.70;53.90;;;;;;2343900;53;21819;-67
2022/09/06 00:37:28;;;;;;;3.10;1.30;;;22.70;53.90;;;;;;2354929;53;21924;-69
2022/09/06 00:39:55;;;;;;;2.65;1.50;;;22.70;53.90;;;;;;2342435;53;21024;-69
2022/09/06 00:42:21;;;;;;;2.50;1.20;;;22.80;54.00;;;;;;2346988;53;20922;-72
2022/09/06 00:44:48;;;;;;;3.80;1.60;;;22.70;53.90;;;;;;2371302;53;20990;-70
2022/09/06 00:47:15;;;;;;;3.10;1.65;;;22.70;54.00;;;;;;2367088;53;20954;-69
2022/09/06 00:49:44;;;;;;;2.65;1.48;;;22.70;54.10;;;;;;2369064;53;20994;-72
2022/09/06 00:52:11;;;;;;;2.92;1.40;;;22.70;54.30;;;;;;2370979;53;20986;-69
2022/09/06 00:54:38;;;;;;;3.30;1.27;;;22.70;54.20;;;;;;2367680;53;20997;-72
2022/09/06 00:57:04;;;;;;;3.62;1.40;;;22.70;54.30;;;;;;2371516;53;20986;-72
2022/09/06 00:59:32;;;;;;;3.42;1.50;;;22.80;54.40;;;;;;2590197;52;21740;-68
2022/09/06 01:01:58;;;;;;;2.20;1.10;;;22.80;54.50;;;;;;2369563;53;20930;-70
2022/09/06 01:04:43;;;;;;;2.40;1.08;;;22.80;54.50;;;;;;2369246;53;20910;-70
2022/09/06 01:07:28;;;;;;;3.37;1.35;;;22.80;54.60;;;;;;2371011;53;20989;-69
2022/09/06 01:16:56;;;;;;;1.90;0.93;;;22.70;54.50;;;;;;2371099;53;20926;-69
2022/09/06 01:19:54;;;;;;;2.17;0.90;;;22.70;54.00;;;;;;2367970;53;21395;-70
2022/09/06 01:23:58;;;;;;;3.03;1.20;;;22.70;54.00;;;;;;2364897;53;21086;-69
2022/09/06 01:27:32;;;;;;;2.47;1.30;;;22.60;54.20;;;;;;2369184;53;21831;-72
2022/09/06 01:30:09;;;;;;;2.60;1.33;;;22.60;54.50;;;;;;2370839;53;21431;-69
2022/09/06 01:34:33;;;;;;;2.55;1.20;;;22.50;54.20;;;;;;2623094;52;20926;-69
2022/09/06 01:37:12;;;;;;;4.45;1.35;;;22.50;54.70;;;;;;2367770;53;21775;-71
2022/09/06 01:39:39;;;;;;;3.03;1.50;;;22.40;54.80;;;;;;2348628;53;20913;-69
2022/09/06 01:42:27;;;;;;;4.22;1.75;;;22.40;54.60;;;;;;2622087;52;21747;-70
2022/09/06 01:46:32;;;;;;;2.95;1.60;;;22.40;55.40;;;;;;2350359;54;20957;-70
2022/09/06 01:49:33;;;;;;;3.90;1.30;;;22.40;55.20;;;;;;2345100;53;21011;-70
2022/09/06 01:52:19;;;;;;;4.50;1.85;;;22.50;55.40;;;;;;2346527;53;20947;-70
2022/09/06 01:55:04;;;;;;;2.62;1.20;;;22.40;55.40;;;;;;2342869;53;20941;-70
2022/09/06 01:58:07;;;;;;;3.20;1.67;;;22.50;55.50;;;;;;2345975;53;20940;-71
2022/09/06 02:00:34;;;;;;;;;;;22.50;55.70;;;;;;2368529;53;20962;-69
2022/09/06 02:03:21;;;;;;;3.47;1.10;;;22.60;55.50;;;;;;2621482;52;20455;-70
2022/09/06 02:05:50;;;;;;;2.67;1.20;;;22.60;55.50;;;;;;2370555;53;20926;-72
2022/09/06 02:11:21;;;;;;;3.08;1.70;;;22.60;55.60;;;;;;2623189;52;20922;-70
2022/09/06 02:13:54;;;;;;;3.15;1.60;;;22.60;55.40;;;;;;2370254;53;21268;-71
2022/09/06 02:16:23;;;;;;;3.62;1.73;;;22.70;55.60;;;;;;2370505;53;20971;-69
2022/09/06 02:19:21;;;;;;;3.15;1.40;;;22.70;55.60;;;;;;2370751;53;21704;-69
2022/09/06 02:21:48;;;;;;;2.70;1.42;;;22.80;55.90;;;;;;2371646;53;20922;-72
2022/09/06 02:24:22;;;;;;;2.60;1.40;;;22.80;55.60;;;;;;2491223;53;20989;-72
2022/09/06 02:26:48;;;;;;;2.70;1.50;;;22.90;55.90;;;;;;2369911;53;20922;-71
2022/09/06 02:29:14;;;;;;;5.35;1.80;;;22.90;55.70;;;;;;2566894;52;22009;-69
2022/09/06 02:31:53;;;;;;;2.58;1.40;;;22.90;55.80;;;;;;2370186;53;20929;-71
2022/09/06 02:34:50;;;;;;;2.22;1.25;;;23.00;56.20;;;;;;2369391;53;20942;-70
2022/09/06 02:37:16;;;;;;;3.97;1.58;;;23.00;56.20;;;;;;2370565;53;20922;-70
2022/09/06 02:39:42;;;;;;;4.40;1.52;;;23.00;55.90;;;;;;2365607;53;21009;-70
2022/09/06 02:42:09;;;;;;;3.30;1.50;;;23.00;55.90;;;;;;2369360;53;20986;-70
2022/09/06 02:44:36;;;;;;;4.90;1.40;;;23.00;55.90;;;;;;2365230;53;20993;-70
2022/09/06 02:47:02;;;;;;;3.47;1.60;;;23.10;55.90;;;;;;2366711;53;20922;-72
2022/09/06 02:49:29;;;;;;;3.50;1.40;;;23.10;55.90;;;;;;2369584;53;20930;-70
2022/09/06 02:51:55;;;;;;;3.03;1.42;;;23.10;55.80;;;;;;2368897;53;21028;-71
2022/09/06 02:54:22;;;;;;;2.87;1.35;;;23.10;55.80;;;;;;2369378;53;20956;-71
2022/09/06 02:57:00;;;;;;;2.55;1.52;;;23.20;55.80;;;;;;2579563;52;20950;-70
2022/09/06 02:59:27;;;;;;;2.30;1.30;;;23.20;56.00;;;;;;2370024;53;20910;-70
2022/09/06 03:01:53;;;;;;;4.07;1.40;;;23.20;55.80;;;;;;2370536;53;21395;-69
2022/09/06 03:04:19;;;;;;;2.90;1.40;;;23.20;55.80;;;;;;2370459;53;20962;-70
2022/09/06 03:06:48;;;;;;;3.60;1.30;;;23.30;55.90;;;;;;2369158;53;20976;-70
2022/09/06 03:09:14;;;;;;;2.65;1.33;;;23.30;55.90;;;;;;2618621;52;20910;-70
2022/09/06 03:11:41;;;;;;;2.62;1.33;;;23.30;55.80;;;;;;2368079;53;20986;-69
2022/09/06 03:14:07;;;;;;;3.55;1.70;;;23.40;55.90;;;;;;2370763;53;21013;-70
2022/09/06 03:16:36;;;;;;;4.12;1.87;;;23.40;56.00;;;;;;2606288;52;20953;-70
2022/09/06 03:19:05;;;;;;;3.20;1.50;;;23.40;56.00;;;;;;2369941;53;21723;-73
2022/09/06 03:21:31;;;;;;;2.75;1.42;;;23.40;56.00;;;;;;2369476;53;21006;-70
2022/09/06 03:23:58;;;;;;;3.22;1.70;;;23.40;56.00;;;;;;2368771;53;21364;-70
2022/09/06 03:26:25;;;;;;;3.75;1.60;;;23.40;56.20;;;;;;2369714;53;20959;-70
2022/09/06 03:28:51;;;;;;;2.40;1.30;;;23.40;56.10;;;;;;2368537;53;21006;-70
2022/09/06 03:31:18;;;;;;;3.95;1.45;;;23.50;56.00;;;;;;2371119;53;20914;-70
2022/09/06 03:33:44;;;;;;;2.95;1.52;;;23.50;56.00;;;;;;2370457;53;20930;-69
2022/09/06 03:36:13;;;;;;;3.30;1.65;;;23.50;55.90;;;;;;2462772;52;20962;-70
2022/09/06 03:38:40;;;;;;;4.30;1.48;;;23.40;55.90;;;;;;2370838;53;20903;-70
2022/09/06 03:41:06;;;;;;;2.97;1.40;;;23.40;55.90;;;;;;2369058;53;20944;-70
2022/09/06 03:43:48;;;;;;;3.42;1.33;;;23.40;56.00;;;;;;2370425;53;20993;-69
2022/09/06 03:46:15;;;;;;;2.62;1.10;;;23.40;56.00;;;;;;2363559;53;20956;-69
2022/09/06 03:48:41;;;;;;;2.37;1.30;;;23.40;55.70;;;;;;2370766;53;21769;-69
2022/09/06 03:51:09;;;;;;;2.55;1.30;;;23.40;55.70;;;;;;2375244;53;20949;-69
2022/09/06 03:53:35;;;;;;;2.45;1.27;;;23.40;55.70;;;;;;2343481;53;20992;-70
2022/09/06 03:56:02;;;;;;;2.60;1.27;;;23.40;55.70;;;;;;2344234;53;21136;-68
2022/09/06 03:58:53;;;;;;;3.12;1.60;;;23.40;55.60;;;;;;2592282;52;21877;-69
2022/09/06 04:01:19;;;;;;;2.67;1.33;;;23.40;56.10;;;;;;2359012;53;20929;-69
2022/09/06 04:03:45;;;;;;;2.78;1.17;;;23.30;55.80;;;;;;2349863;53;20971;-71
2022/09/06 04:06:12;;;;;;;1.98;1.00;;;23.30;55.70;;;;;;2356424;53;20970;-70
2022/09/06 04:08:38;;;;;;;3.35;1.87;;;23.20;55.60;;;;;;2618856;52;20966;-71
2022/09/06 04:11:04;;;;;;;2.42;1.15;;;23.20;55.60;;;;;;2363015;53;20968;-70
2022/09/06 04:13:31;;;;;;;2.05;1.10;;;23.20;55.60;;;;;;2355854;53;20956;-75
2022/09/06 04:15:57;;;;;;;2.87;1.10;;;23.20;55.50;;;;;;2359338;53;21024;-69
2022/09/06 04:18:23;;;;;;;4.55;1.25;;;23.20;55.60;;;;;;2357687;53;20991;-67
2022/09/06 04:20:51;;;;;;;2.33;1.20;;;23.10;55.50;;;;;;2369541;53;21000;-69
2022/09/06 04:23:18;;;;;;;3.42;1.15;;;23.10;55.50;;;;;;2554922;52;21464;-70
2022/09/06 04:25:54;;;;;;;2.15;0.98;;;23.00;55.50;;;;;;2607405;52;21012;-74
2022/09/06 04:28:25;;;;;;;2.53;1.23;;;23.00;55.60;;;;;;2357040;53;21010;-71
2022/09/06 04:31:16;;;;;;;2.28;1.20;;;23.00;55.60;;;;;;2353607;52;20935;-70
2022/09/06 04:33:42;;;;;;;2.92;1.30;;;23.00;55.60;;;;;;2593584;52;20952;-69
2022/09/06 04:36:09;;;;;;;2.95;1.05;;;22.90;55.40;;;;;;2364344;53;20953;-70
2022/09/06 04:38:37;;;;;;;2.55;1.20;;;22.90;55.70;;;;;;2369383;53;20974;-70
2022/09/06 04:44:43;;;;;;;2.12;1.00;;;22.90;55.70;;;;;;2599653;52;21615;-72
2022/09/06 04:47:13;;;;;;;2.85;1.20;;;22.80;55.40;;;;;;2457628;53;20962;-70
2022/09/06 04:49:44;;;;;;;2.67;1.23;;;22.70;55.40;;;;;;2619076;52;22466;-70
2022/09/06 04:52:11;;;;;;;2.15;1.15;;;22.70;55.50;;;;;;2361690;53;20992;-72
2022/09/06 04:54:37;;;;;;;2.28;1.20;;;22.60;55.40;;;;;;2365952;53;21002;-69
2022/09/06 04:57:16;;;;;;;2.40;1.30;;;22.60;55.60;;;;;;2367653;53;21778;-69
2022/09/06 05:00:16;;;;;;;2.30;1.27;;;22.60;55.80;;;;;;2367392;53;21816;-69
2022/09/06 05:02:43;;;;;;;2.25;1.12;;;22.60;55.80;;;;;;2359216;53;20947;-69
2022/09/06 05:05:10;;;;;;;3.08;1.08;;;22.50;55.60;;;;;;2365047;53;20920;-69
2022/09/06 05:07:36;;;;;;;2.45;1.20;;;22.50;55.60;;;;;;2570632;53;20965;-70
2022/09/06 05:10:29;;;;;;;2.55;1.10;;;22.50;55.70;;;;;;2335719;53;20959;-70
2022/09/06 05:12:56;;;;;;;3.17;1.20;;;22.50;56.00;;;;;;2360066;53;20904;-69
2022/09/06 05:16:16;;;;;;;3.15;1.33;;;22.40;55.70;;;;;;2351732;53;20970;-71
2022/09/06 05:18:58;;;;;;;2.53;1.10;;;22.40;55.90;;;;;;2356237;53;21739;-70
2022/09/06 05:21:24;;;;;;;2.37;1.00;;;22.40;55.80;;;;;;2342657;53;21508;-69
2022/09/06 05:23:53;;;;;;;2.45;1.12;;;22.30;55.60;;;;;;2366070;53;21111;-69
2022/09/06 05:26:31;;;;;;;3.25;1.12;;;22.30;55.70;;;;;;2611947;52;21030;-69
2022/09/06 05:28:57;;;;;;;2.80;1.25;;;22.30;55.90;;;;;;2371124;53;20978;-68
2022/09/06 05:31:28;;;;;;;4.53;1.20;;;22.20;55.80;;;;;;2370603;53;20949;-69
2022/09/06 05:33:56;;;;;;;4.45;1.67;;;22.20;55.90;;;;;;2358928;53;20915;-69
2022/09/06 05:36:23;;;;;;;3.28;1.17;;;22.20;56.10;;;;;;2373588;53;21399;-69
2022/09/06 05:38:52;;;;;;;3.65;1.70;;;22.20;56.20;;;;;;2341220;54;21013;-69
2022/09/06 05:41:28;;;;;;;3.10;1.30;;;22.20;56.60;;;;;;2373716;53;20974;-69
2022/09/06 05:43:54;;;;;;;2.60;1.40;;;22.20;56.90;;;;;;2367369;53;21815;-70
2022/09/06 05:46:21;;;;;;;3.35;1.30;;;22.10;56.60;;;;;;2364364;53;20986;-70
2022/09/06 05:48:53;;;;;;;3.50;1.48;;;22.10;56.60;;;;;;2618079;52;22669;-68
2022/09/06 05:51:20;;;;;;;2.83;1.33;;;22.10;56.80;;;;;;2361884;53;20945;-72
2022/09/06 05:53:46;;;;;;;2.65;1.08;;;22.10;56.70;;;;;;2612608;52;20981;-70
2022/09/06 05:56:13;;;;;;;2.22;1.30;;;22.10;56.80;;;;;;2363334;53;20958;-70
2022/09/06 05:58:39;;;;;;;3.97;1.58;;;22.20;56.90;;;;;;2346780;53;20960;-70
2022/09/06 06:01:25;;;;;;;2.40;1.27;;;22.20;56.90;;;;;;2612561;52;20915;-69
2022/09/06 06:04:02;;;;;;;3.35;1.70;;;22.20;57.20;;;;;;2358916;53;21036;-72
2022/09/06 06:06:31;;;;;;;3.03;1.60;;;22.20;57.10;;;;;;2361481;53;21961;-68
2022/09/06 06:08:57;;;;;;;3.70;1.95;;;22.20;57.00;;;;;;2357053;53;20946;-72
2022/09/06 06:11:24;;;;;;;3.03;1.73;;;22.20;57.10;;;;;;2365829;53;20921;-70
2022/09/06 06:13:51;;;;;;;3.42;1.55;;;22.20;57.10;;;;;;2537763;52;21395;-72
2022/09/06 06:16:44;;;;;;;2.97;1.62;;;22.20;57.10;;;;;;2481463;52;20941;-71
2022/09/06 06:19:36;;;;;;;4.18;1.80;;;22.30;57.50;;;;;;2620540;52;20966;-68
2022/09/06 06:22:51;;;;;;;2.58;1.48;;;22.30;57.50;;;;;;2370960;53;21379;-70
2022/09/06 06:25:21;;;;;;;3.65;1.70;;;22.30;57.50;;;;;;2370660;53;21025;-70
2022/09/06 06:27:48;;;;;;;3.05;1.48;;;22.30;57.30;;;;;;2370963;53;20973;-72
2022/09/06 06:30:14;;;;;;;3.50;1.50;;;22.30;57.40;;;;;;2369779;53;20907;-70
2022/09/06 06:32:43;;;;;;;3.67;1.60;;;22.40;57.50;;;;;;2368945;53;21010;-72
2022/09/06 06:35:09;;;;;;;2.92;1.48;;;22.40;57.50;;;;;;2368503;53;21005;-67
2022/09/06 06:37:36;;;;;;;2.33;1.40;;;22.40;57.50;;;;;;2367106;53;20898;-70
2022/09/06 06:40:04;;;;;;;3.33;1.62;;;22.50;57.70;;;;;;2368923;53;21920;-70
2022/09/06 06:42:30;;;;;;;2.90;1.40;;;22.50;57.70;;;;;;2622971;52;21483;-70
2022/09/06 06:44:56;;;;;;;4.45;1.52;;;22.50;57.70;;;;;;2368681;53;21021;-70
2022/09/06 06:47:23;;;;;;;3.12;1.52;;;22.50;57.70;;;;;;2370351;53;20918;-71
2022/09/06 06:49:49;;;;;;;3.33;1.30;;;22.60;57.90;;;;;;2369425;53;20946;-70
2022/09/06 06:52:27;;;;;;;3.15;1.67;;;22.60;58.00;;;;;;2579048;52;20958;-71
2022/09/06 06:54:53;;;;;;;2.90;1.55;;;22.70;58.30;;;;;;2435097;52;20914;-70
2022/09/06 06:57:21;;;;;;;6.32;1.90;;;22.70;58.10;;;;;;2368105;53;21218;-70
2022/09/06 06:59:51;;;;;;;3.05;1.60;;;22.70;58.20;;;;;;2368565;53;20938;-72
2022/09/06 07:02:17;;;;;;;2.90;1.52;;;22.80;58.30;;;;;;2369449;53;20965;-70
2022/09/06 07:04:43;;;;;;;3.08;1.50;;;22.80;58.30;;;;;;2369768;53;20973;-67
2022/09/06 07:07:10;;;;;;;2.45;1.30;;;22.90;58.40;;;;;;2369499;53;20918;-69
2022/09/06 07:10:06;;;;;;;3.08;1.60;;;23.00;58.50;;;;;;2491401;53;21372;-71
2022/09/06 07:13:02;;;;;;;3.12;1.60;;;23.00;58.50;;;;;;2622826;52;21217;-70
2022/09/06 07:15:29;;;;;;;4.07;1.55;;;23.10;58.60;;;;;;2366897;53;20974;-70
2022/09/06 07:17:55;;;;;;;3.50;1.83;;;23.20;58.70;;;;;;2619226;52;21359;-70
2022/09/06 07:20:46;;;;;;;3.08;1.80;;;23.20;58.70;;;;;;2370919;53;21478;-69
2022/09/06 07:24:06;;;;;;;3.62;2.00;;;23.30;59.20;;;;;;2460415;52;20965;-70
2022/09/06 07:27:15;;;;;;;2.97;1.70;;;23.40;59.30;;;;;;2622496;52;20878;-72
2022/09/06 07:30:13;;;;;;;2.97;1.87;;;23.40;59.30;;;;;;2362134;53;20913;-71
2022/09/06 07:32:40;;;;;;;3.00;1.70;;;23.50;58.90;;;;;;2623891;52;20914;-70
2022/09/06 07:35:07;;;;;;;3.75;1.80;;;23.50;59.00;;;;;;2370016;53;20919;-70
2022/09/06 07:37:34;;;;;;;3.20;1.50;;;23.60;59.10;;;;;;2368989;53;21033;-73
2022/09/06 07:40:02;;;;;;;2.70;1.50;;;23.70;59.20;;;;;;2371004;53;21379;-73
2022/09/06 07:42:33;;;;;;;3.37;1.67;;;23.70;59.20;;;;;;2368828;53;20914;-70
2022/09/06 07:45:01;;;;;;;3.15;1.73;;;23.80;59.30;;;;;;2369991;53;20943;-71
2022/09/06 07:47:27;;;;;;;3.53;1.90;;;23.80;59.20;;;;;;2370888;53;20934;-74
2022/09/06 07:50:27;;;;;;;3.22;1.67;;;23.90;59.40;;;;;;2370117;53;20953;-70
2022/09/06 07:53:23;;;;;;;4.07;1.92;;;23.90;59.30;;;;;;2370341;53;20919;-71
2022/09/06 07:56:09;;;;;;;4.80;1.80;;;24.00;59.30;;;;;;2620189;52;21960;-70
2022/09/06 07:58:35;;;;;;;3.50;1.62;;;24.10;59.50;;;;;;2370211;53;21514;-70
2022/09/06 08:01:33;;;;;;;4.10;1.52;;;24.10;59.30;;;;;;2369642;53;20958;-72
2022/09/06 08:04:09;;;;;;;4.65;1.70;;;24.20;59.60;;;;;;2367877;53;20934;-70
2022/09/06 08:06:36;;;;;;;3.25;1.45;;;24.20;59.50;;;;;;2362920;53;20933;-73
2022/09/06 08:09:33;;;;;;;5.78;1.90;;;24.30;59.30;;;;;;2369858;53;21021;-72
2022/09/06 08:12:05;;;;;;;5.03;1.80;;;24.40;59.30;;;;;;2367403;53;21405;-71
2022/09/06 08:14:32;;;;;;;4.07;1.70;;;24.50;59.40;;;;;;2370778;53;20930;-72
2022/09/06 08:16:58;;;;;;;4.03;1.27;;;24.50;59.30;;;;;;2370384;53;20958;-70
2022/09/06 08:22:52;;;;;;;3.47;1.58;;;24.70;59.50;;;;;;2520433;52;20946;-69
2022/09/06 08:25:20;;;;;;;2.95;1.30;;;24.80;59.30;;;;;;2415584;52;21284;-74
2022/09/06 08:27:46;;;;;;;4.37;1.45;;;24.80;59.20;;;;;;2370497;53;20934;-68
2022/09/06 08:30:13;;;;;;;4.40;1.48;;;24.90;59.20;;;;;;2369148;53;21450;-69
2022/09/06 08:32:41;;;;;;;4.62;1.67;;;25.00;59.30;;;;;;2370696;53;21006;-71
2022/09/06 08:35:08;;;;;;;3.85;1.65;;;25.00;59.10;;;;;;2370984;53;20923;-73
2022/09/06 08:37:34;;;;;;;3.70;1.40;;;25.20;59.20;;;;;;2371085;53;21766;-70
2022/09/06 08:40:02;;;;;;;6.18;1.77;;;25.20;59.00;;;;;;2364842;53;20970;-71
2022/09/06 08:42:28;;;;;;;4.55;1.90;;;25.30;58.90;;;;;;2372573;53;20945;-69
2022/09/06 08:44:56;;;;;;;4.60;2.03;;;25.40;58.70;;;;;;2366908;53;21001;-71
2022/09/06 08:47:23;;;;;;;3.95;1.67;;;25.40;58.50;;;;;;2623621;52;20942;-70
2022/09/06 08:50:23;;;;;;;3.60;1.60;;;25.50;58.40;;;;;;2618597;52;20982;-70
2022/09/06 08:53:02;;;;;;;3.55;1.80;;;25.50;58.50;;;;;;2371433;53;20989;-72
2022/09/06 08:55:58;;;;;;;3.90;1.40;;;25.50;58.50;;;;;;2372270;53;20938;-72
2022/09/06 09:02:14;;;;;;;3.95;1.37;;;25.70;58.50;;;;;;2578650;52;20972;-70
2022/09/06 09:04:46;;;;;;;3.92;1.48;;;25.70;58.20;;;;;;2344688;53;20991;-70
2022/09/06 09:07:43;;;;;;;2.83;1.30;;;25.70;58.10;;;;;;2604939;52;20990;-75
2022/09/06 09:10:20;;;;;;;5.45;1.65;;;25.80;58.10;;;;;;2343705;53;21415;-71
2022/09/06 09:12:47;;;;;;;4.32;2.08;;;25.90;58.00;;;;;;2343151;53;20937;-71
2022/09/06 09:15:17;;;;;;;3.33;1.67;;;25.90;58.00;;;;;;2490227;52;21786;-74
2022/09/06 09:17:45;;;;;;;4.32;1.80;;;25.90;57.90;;;;;;2351203;53;20942;-73
2022/09/06 09:20:11;;;;;;;4.68;1.80;;;26.00;57.90;;;;;;2369746;53;20958;-71
2022/09/06 09:23:00;;;;;;;4.07;1.60;;;26.00;57.90;;;;;;2369170;53;20977;-71
2022/09/06 09:25:45;;;;;;;4.28;1.70;;;26.00;57.80;;;;;;2351077;54;21501;-74
2022/09/06 09:28:15;;;;;;;4.25;1.73;;;26.10;57.70;;;;;;2369045;53;20910;-70
2022/09/06 09:30:50;;;;;;;3.10;1.48;;;26.10;57.60;;;;;;2370393;53;20954;-71
2022/09/06 09:33:35;;;;;;;3.87;1.50;;;26.10;57.50;;;;;;2370373;53;21497;-75
2022/09/06 09:36:06;;;;;;;4.35;1.80;;;26.20;57.40;;;;;;2589206;52;21063;-75
2022/09/06 09:38:43;;;;;;;5.05;1.60;;;26.10;57.30;;;;;;2371667;53;20954;-70
2022/09/06 09:41:09;;;;;;;3.50;1.70;;;26.20;57.40;;;;;;2370859;53;20942;-73
2022/09/06 09:43:37;;;;;;;4.25;1.58;;;26.20;57.30;;;;;;2366736;53;21496;-70
2022/09/06 09:49:39;;;;;;;4.07;1.83;;;26.20;57.20;;;;;;2353953;53;20958;-72
2022/09/06 09:52:10;;;;;;;3.33;1.50;;;26.20;57.30;;;;;;2371346;53;20966;-71
2022/09/06 09:54:39;;;;;;;3.60;1.67;;;26.30;57.40;;;;;;2624009;52;21529;-71
2022/09/06 09:57:10;;;;;;;3.03;1.62;;;26.30;57.50;;;;;;2370955;53;20966;-70
2022/09/06 09:59:45;;;;;;;4.40;1.62;;;26.30;57.70;;;;;;2370236;53;20919;-71
2022/09/06 10:02:35;;;;;;;4.15;1.75;;;26.30;57.70;;;;;;2371458;53;20918;-71
2022/09/06 10:05:03;;;;;;;4.37;1.62;;;26.40;57.80;;;;;;2622154;52;20981;-71
2022/09/06 10:07:30;;;;;;;3.30;1.62;;;26.50;57.80;;;;;;2350518;53;21258;-71
2022/09/06 10:10:04;;;;;;;3.28;1.55;;;26.50;57.90;;;;;;2370642;53;21442;-72
2022/09/06 10:12:39;;;;;;;3.40;1.60;;;26.60;57.80;;;;;;2622051;52;21397;-73
2022/09/06 10:15:07;;;;;;;5.15;1.58;;;26.70;58.00;;;;;;2371397;53;20942;-71
2022/09/06 10:17:35;;;;;;;3.95;1.95;;;26.70;57.90;;;;;;2370280;53;20962;-70
2022/09/06 10:20:08;;;;;;;3.85;2.03;;;26.80;57.90;;;;;;2371380;53;21010;-70
2022/09/06 10:23:02;;;;;;;4.28;1.87;;;26.90;58.10;;;;;;2488850;52;20977;-70
2022/09/06 10:25:51;;;;;;;3.15;1.52;;;27.00;58.00;;;;;;2451097;52;21006;-73
2022/09/06 10:28:28;;;;;;;4.70;1.80;;;27.10;57.70;;;;;;2621190;52;21045;-72
2022/09/06 10:32:44;;;;;;;4.10;1.90;;;27.20;58.00;;;;;;2604264;52;20914;-72
2022/09/06 10:35:22;;;;;;;3.80;1.60;;;27.20;58.10;;;;;;2610865;52;21763;-71
2022/09/06 10:38:18;;;;;;;2.85;1.40;;;27.40;57.60;;;;;;2359739;53;20938;-73
2022/09/06 10:43:23;;;;;;;3.75;1.50;;;27.50;57.40;;;;;;2371472;53;21822;-70
2022/09/06 10:46:20;;;;;;;3.47;1.20;;;27.60;57.40;;;;;;2369716;53;20983;-70
2022/09/06 10:48:47;;;;;;;4.57;1.50;;;27.70;57.20;;;;;;2623299;52;21320;-70
2022/09/06 10:52:05;;;;;;;4.00;1.70;;;27.80;57.20;;;;;;2344587;53;20969;-70
2022/09/06 10:54:31;;;;;;;5.35;1.70;;;27.90;56.90;;;;;;2592034;52;21549;-69
2022/09/06 10:57:03;;;;;;;3.17;1.40;;;28.00;57.00;;;;;;2592353;52;20921;-72
2022/09/06 10:59:45;;;;;;;4.27;1.57;;;28.10;56.90;;;;;;2386302;53;21873;-71
2022/09/06 11:04:01;;;;;;;3.60;1.52;;;28.10;56.60;;;;;;2587655;52;21727;-71
2022/09/06 11:06:33;;;;;;;2.60;1.10;;;28.20;56.30;;;;;;2345350;53;21004;-71
2022/09/06 11:09:11;;;;;;;2.65;1.30;;;28.40;56.40;;;;;;2342931;53;21000;-73
2022/09/06 11:11:47;;;;;;;2.60;1.12;;;28.40;56.10;;;;;;2342146;53;20940;-71
2022/09/06 11:14:14;;;;;;;2.40;1.30;;;28.50;55.90;;;;;;2563216;52;20975;-70
2022/09/06 11:29:56;;;;;;;4.00;1.30;;;28.60;56.20;;;;;;2575327;52;21002;-71
2022/09/06 11:35:33;;;;;;;3.05;1.05;;;29.10;55.20;;;;;;2343053;53;21481;-73
2022/09/06 11:38:19;;;;;;;1.98;0.82;;;29.20;54.90;;;;;;2339773;53;20978;-74
2022/09/06 11:40:47;;;;;;;3.67;1.10;;;29.20;53.80;;;;;;2359421;53;21490;-71
2022/09/06 11:50:14;;;;;;;3.78;1.00;;;29.20;54.20;;;;;;2344545;53;21476;-70
2022/09/06 11:54:41;;;;;;;2.50;0.98;;;29.30;53.90;;;;;;2347387;53;20946;-72
2022/09/06 11:57:19;;;;;;;2.92;0.90;;;29.60;53.60;;;;;;2342818;53;21435;-71
2022/09/06 12:00:15;;;;;;;3.75;1.10;;;29.70;53.30;;;;;;2342056;53;21415;-72
2022/09/06 12:02:43;;;;;;;3.05;1.15;;;29.80;53.30;;;;;;2346135;54;20949;-71
2022/09/06 12:05:14;;;;;;;2.67;1.20;;;29.80;53.50;;;;;;2342917;54;21063;-73
2022/09/06 12:08:18;;;;;;;2.78;1.20;;;29.90;53.40;;;;;;2347571;54;21016;-71
2022/09/06 12:10:56;;;;;;;2.40;1.20;;;29.90;53.00;;;;;;2337430;55;21069;-72
2022/09/06 12:13:37;;;;;;;3.08;1.35;;;30.00;52.90;;;;;;2614160;52;20940;-72
2022/09/06 12:16:04;;;;;;;2.33;1.00;;;30.00;52.60;;;;;;2595397;52;20961;-72
2022/09/06 12:20:40;;;;;;;2.58;1.30;;;30.00;53.00;;;;;;2589040;52;20936;-69
2022/09/06 12:24:08;;;;;;;3.12;1.10;;;30.10;52.50;;;;;;2339012;53;21496;-69
2022/09/06 12:27:21;;;;;;;2.40;0.88;;;30.10;52.20;;;;;;2368961;53;20966;-71
2022/09/06 12:33:31;;;;;;;2.40;0.98;;;30.20;51.90;;;;;;2623743;52;21005;-71
2022/09/06 12:36:17;;;;;;;2.65;0.98;;;30.20;51.80;;;;;;2370088;53;20950;-69
2022/09/06 12:38:56;;;;;;;2.83;1.10;;;30.20;51.50;;;;;;2371404;53;21460;-70
2022/09/06 12:41:24;;;;;;;2.90;1.08;;;30.20;51.70;;;;;;2623643;52;20910;-69
2022/09/06 12:44:24;;;;;;;3.33;1.30;;;30.20;51.80;;;;;;2366399;53;21105;-71
2022/09/06 12:46:50;;;;;;;2.22;1.10;;;30.20;51.40;;;;;;2369565;53;20919;-70
2022/09/06 12:49:20;;;;;;;4.28;1.30;;;30.20;51.70;;;;;;2370066;53;21716;-70
2022/09/06 12:51:47;;;;;;;2.60;1.15;;;30.20;51.60;;;;;;2369148;53;20952;-70
2022/09/06 12:54:27;;;;;;;2.95;1.10;;;30.20;51.80;;;;;;2369895;53;21089;-71
2022/09/06 12:57:11;;;;;;;5.15;1.17;;;30.20;51.70;;;;;;2393289;52;20935;-70
2022/09/06 12:59:37;;;;;;;4.25;1.52;;;30.20;51.60;;;;;;2369550;53;20992;-72
2022/09/06 13:02:10;;;;;;;4.95;1.50;;;30.20;51.80;;;;;;2369885;53;21450;-70
2022/09/06 13:04:40;;;;;;;2.87;1.30;;;30.30;51.90;;;;;;2367666;53;21029;-70
2022/09/06 13:07:27;;;;;;;5.82;1.40;;;30.30;52.00;;;;;;2618970;52;20945;-70
2022/09/06 13:10:00;;;;;;;3.28;1.12;;;30.30;51.70;;;;;;2371983;53;21086;-69
2022/09/06 13:12:33;;;;;;;3.17;1.35;;;30.30;51.80;;;;;;2370431;53;20949;-70
2022/09/06 13:15:15;;;;;;;3.58;1.33;;;30.30;51.80;;;;;;2370265;53;20923;-70
2022/09/06 13:18:19;;;;;;;2.45;1.10;;;30.30;51.50;;;;;;2370803;53;21424;-70
2022/09/06 13:20:55;;;;;;;3.58;1.40;;;30.40;51.60;;;;;;2360395;53;21296;-70
2022/09/06 13:23:21;;;;;;;3.55;1.20;;;30.30;51.80;;;;;;2613779;52;21009;-71
2022/09/06 13:25:49;;;;;;;2.10;0.98;;;30.30;51.80;;;;;;2367909;53;20990;-71
2022/09/06 13:28:29;;;;;;;3.40;1.20;;;30.40;51.70;;;;;;2370740;53;20914;-73
2022/09/06 13:31:13;;;;;;;2.97;1.00;;;30.40;51.20;;;;;;2369868;53;20902;-70
2022/09/06 13:33:39;;;;;;;3.85;1.17;;;30.40;51.00;;;;;;2624310;52;20935;-72
2022/09/06 13:37:40;;;;;;;4.20;1.20;;;30.40;51.00;;;;;;2369922;56;21408;-72
2022/09/06 13:40:35;;;;;;;3.33;1.20;;;30.40;50.90;;;;;;2364275;53;20937;-73
2022/09/06 13:43:11;;;;;;;2.65;1.20;;;30.40;50.80;;;;;;2622055;52;20977;-73
2022/09/06 13:45:38;;;;;;;3.12;1.20;;;30.40;51.20;;;;;;2371810;53;20954;-71
2022/09/06 13:48:04;;;;;;;4.95;1.20;;;30.40;51.20;;;;;;2349027;53;20930;-72
2022/09/06 13:50:44;;;;;;;3.37;1.20;;;30.40;51.20;;;;;;2369870;53;20977;-71
2022/09/06 13:53:17;;;;;;;3.80;1.23;;;30.40;51.10;;;;;;2560744;52;21423;-72
2022/09/06 13:55:44;;;;;;;3.10;1.45;;;30.40;51.10;;;;;;2369982;53;20949;-72
2022/09/06 13:58:10;;;;;;;4.85;1.23;;;30.40;51.10;;;;;;2370796;53;21397;-70
2022/09/06 14:00:39;;;;;;;4.40;1.48;;;30.40;51.10;;;;;;2369938;53;21391;-70
2022/09/06 14:03:07;;;;;;;2.87;1.30;;;30.40;51.30;;;;;;2370920;53;21367;-72
2022/09/06 14:05:37;;;;;;;2.42;1.17;;;30.50;51.40;;;;;;2609606;52;20922;-73
2022/09/06 14:08:04;;;;;;;2.58;1.08;;;30.50;51.40;;;;;;2623383;52;20910;-71
2022/09/06 14:10:30;;;;;;;4.10;1.42;;;30.50;51.50;;;;;;2370442;53;21002;-70
2022/09/06 14:12:56;;;;;;;4.12;1.60;;;30.60;51.50;;;;;;2370286;53;21466;-72
2022/09/06 14:15:23;;;;;;;4.32;1.30;;;30.60;51.20;;;;;;2370656;53;20922;-71
2022/09/06 14:17:49;;;;;;;3.87;1.40;;;30.70;51.00;;;;;;2617767;52;21491;-70
2022/09/06 14:20:16;;;;;;;5.30;1.50;;;30.70;50.90;;;;;;2621291;52;20970;-72
2022/09/06 14:22:42;;;;;;;3.40;1.37;;;30.70;51.00;;;;;;2371700;53;20955;-72
2022/09/06 14:25:09;;;;;;;3.58;1.40;;;30.70;50.90;;;;;;2353204;53;21013;-71
2022/09/06 14:27:35;;;;;;;7.65;1.40;;;30.80;50.70;;;;;;2370513;53;20973;-72
2022/09/06 14:30:02;;;;;;;2.72;1.20;;;30.80;50.60;;;;;;2369782;53;21045;-73